createdAt,value
2018-10-12T00:00:55.866Z,15.47
2018-10-12T00:03:23.177Z,17.60
2018-10-12T00:05:51.344Z,16.90
2018-10-12T00:08:18.569Z,19.23
2018-10-12T00:10:45.836Z,18.03
2018-10-12T00:13:13.048Z,15.60
2018-10-12T00:15:40.236Z,18.23
2018-10-12T00:18:07.439Z,18.57
2018-10-12T00:20:34.706Z,18.00
2018-10-12T00:23:01.879Z,15.43
2018-10-12T00:25:29.132Z,16.60
2018-10-12T00:27:56.361Z,15.47
2018-10-12T00:30:23.551Z,16.43
2018-10-12T00:32:50.804Z,15.43
2018-10-12T00:35:18.018Z,17.50
2018-10-12T00:37:45.208Z,14.77
2018-10-12T00:40:12.437Z,15.83
2018-10-12T00:42:39.727Z,18.80
2018-10-12T00:45:06.925Z,15.10
2018-10-12T00:47:34.335Z,15.27
2018-10-12T00:50:01.530Z,16.77
2018-10-12T00:52:28.728Z,15.90
2018-10-12T00:54:56.185Z,15.80
2018-10-12T00:57:23.348Z,16.20
2018-10-12T00:59:50.549Z,15.37
2018-10-12T01:02:17.813Z,16.30
2018-10-12T01:04:45.057Z,16.47
2018-10-12T01:07:12.544Z,16.13
2018-10-12T01:09:39.816Z,19.83
2018-10-12T01:12:19.489Z,14.73
2018-10-12T01:14:46.697Z,15.03
2018-10-12T01:17:13.925Z,14.20
2018-10-12T01:19:41.238Z,18.00
2018-10-12T01:22:08.585Z,15.80
2018-10-12T01:24:35.798Z,15.53
2018-10-12T01:27:03.062Z,22.73
2018-10-12T01:29:30.297Z,16.73
2018-10-12T01:31:57.557Z,19.63
2018-10-12T01:34:24.754Z,22.63
2018-10-12T01:36:51.993Z,19.40
2018-10-12T01:39:19.169Z,16.27
2018-10-12T01:41:46.415Z,20.30
2018-10-12T01:44:13.684Z,19.13
2018-10-12T01:46:40.898Z,23.60
2018-10-12T01:49:08.081Z,17.93
2018-10-12T01:51:35.330Z,20.07
2018-10-12T01:54:02.614Z,16.13
2018-10-12T01:56:29.821Z,17.23
2018-10-12T01:58:57.116Z,15.10
2018-10-12T02:01:24.334Z,16.40
2018-10-12T02:03:51.493Z,17.87
2018-10-12T02:06:18.800Z,17.33
2018-10-12T02:08:46.019Z,17.00
2018-10-12T02:11:13.230Z,16.57
2018-10-12T02:13:40.441Z,20.77
2018-10-12T02:16:07.645Z,16.10
2018-10-12T02:18:34.900Z,16.43
2018-10-12T02:21:02.121Z,17.30
2018-10-12T02:23:29.349Z,16.50
2018-10-12T02:25:56.668Z,19.70
2018-10-12T02:28:23.885Z,19.37
2018-10-12T02:30:51.063Z,21.63
2018-10-12T02:33:18.282Z,29.80
2018-10-12T02:35:45.521Z,20.77
2018-10-12T02:38:12.701Z,14.93
2018-10-12T02:40:39.912Z,17.53
2018-10-12T02:43:07.155Z,18.50
2018-10-12T02:45:34.477Z,16.40
2018-10-12T02:48:01.803Z,19.13
2018-10-12T02:50:28.981Z,18.23
2018-10-12T02:52:56.253Z,18.73
2018-10-12T02:55:23.522Z,16.93
2018-10-12T02:57:50.766Z,16.70
2018-10-12T03:00:17.952Z,16.53
2018-10-12T03:02:45.110Z,17.67
2018-10-12T03:05:12.471Z,16.40
2018-10-12T03:07:39.693Z,26.13
2018-10-12T03:10:06.903Z,20.53
2018-10-12T03:12:34.157Z,16.27
2018-10-12T03:15:01.433Z,17.73
2018-10-12T03:17:28.634Z,16.90
2018-10-12T03:19:55.830Z,16.70
2018-10-12T03:22:23.030Z,16.93
2018-10-12T03:24:50.283Z,19.07
2018-10-12T03:27:17.513Z,17.27
2018-10-12T03:29:44.776Z,16.37
2018-10-12T03:32:11.993Z,18.13
2018-10-12T03:34:39.205Z,20.20
2018-10-12T03:37:06.451Z,16.13
2018-10-12T03:39:33.636Z,19.73
2018-10-12T03:42:00.877Z,19.03
2018-10-12T03:44:28.153Z,17.80
2018-10-12T03:46:55.397Z,19.40
2018-10-12T03:49:22.640Z,20.67
2018-10-12T03:51:49.958Z,16.70
2018-10-12T03:54:17.144Z,19.37
2018-10-12T03:56:44.361Z,20.90
2018-10-12T03:59:11.590Z,19.07
2018-10-12T04:01:38.813Z,19.70
2018-10-12T04:04:06.027Z,15.83
2018-10-12T04:06:33.301Z,19.33
2018-10-12T04:09:00.565Z,29.87
2018-10-12T04:11:27.769Z,19.50
2018-10-12T04:13:54.987Z,18.13
2018-10-12T04:16:22.172Z,18.33
2018-10-12T04:18:49.409Z,23.17
2018-10-12T04:21:17.838Z,18.27
2018-10-12T04:23:45.070Z,19.03
2018-10-12T04:26:12.306Z,18.80
2018-10-12T04:28:39.481Z,20.67
2018-10-12T04:31:06.705Z,18.70
2018-10-12T04:33:33.926Z,17.90
2018-10-12T04:36:01.157Z,17.40
2018-10-12T04:39:42.549Z,19.27
2018-10-12T04:42:09.810Z,20.13
2018-10-12T04:44:37.034Z,21.37
2018-10-12T04:47:04.333Z,19.10
2018-10-12T04:49:31.712Z,21.90
2018-10-12T04:51:59.458Z,20.77
2018-10-12T04:54:27.145Z,18.77
2018-10-12T04:56:54.452Z,28.23
2018-10-12T04:59:21.812Z,20.10
2018-10-12T05:01:49.106Z,18.83
2018-10-12T05:04:16.333Z,19.67
2018-10-12T05:06:43.549Z,22.40
2018-10-12T05:09:11.879Z,16.90
2018-10-12T05:11:39.353Z,22.70
2018-10-12T05:14:06.709Z,19.50
2018-10-12T05:16:34.238Z,20.63
2018-10-12T05:19:01.619Z,20.63
2018-10-12T05:21:28.925Z,23.53
2018-10-12T05:23:56.208Z,27.17
2018-10-12T05:26:23.457Z,22.70
2018-10-12T05:28:50.753Z,21.00
2018-10-12T05:31:18.139Z,21.03
2018-10-12T05:33:45.502Z,19.10
2018-10-12T05:36:13.291Z,17.43
2018-10-12T05:38:40.557Z,20.43
2018-10-12T05:41:07.780Z,17.17
2018-10-12T05:43:35.032Z,22.33
2018-10-12T05:46:02.338Z,18.97
2018-10-12T05:48:41.264Z,22.90
2018-10-12T05:51:09.409Z,19.40
2018-10-12T05:53:37.020Z,22.90
2018-10-12T05:56:04.629Z,26.20
2018-10-12T05:58:32.450Z,22.50
2018-10-12T06:01:00.047Z,19.40
2018-10-12T06:03:27.296Z,21.47
2018-10-12T06:05:54.714Z,27.43
2018-10-12T06:08:22.029Z,17.77
2018-10-12T06:10:49.489Z,23.20
2018-10-12T06:13:17.036Z,22.77
2018-10-12T06:15:44.524Z,22.20
2018-10-12T06:18:12.289Z,19.93
2018-10-12T06:20:39.594Z,18.87
2018-10-12T06:23:06.865Z,26.30
2018-10-12T06:25:34.430Z,23.70
2018-10-12T06:28:01.722Z,21.40
2018-10-12T06:30:29.037Z,23.57
2018-10-12T06:32:56.343Z,25.70
2018-10-12T06:35:23.633Z,21.47
2018-10-12T06:37:50.893Z,23.87
2018-10-12T06:40:18.141Z,25.53
2018-10-12T06:42:45.438Z,29.23
2018-10-12T06:45:12.714Z,22.83
2018-10-12T06:47:40.009Z,21.93
2018-10-12T06:50:07.274Z,22.90
2018-10-12T06:52:34.830Z,19.57
2018-10-12T06:55:02.057Z,23.90
2018-10-12T06:57:29.305Z,23.40
2018-10-12T06:59:56.688Z,25.53
2018-10-12T07:02:23.910Z,28.80
2018-10-12T07:04:51.606Z,26.00
2018-10-12T07:07:18.849Z,30.23
2018-10-12T07:09:46.249Z,20.10
2018-10-12T07:12:14.191Z,18.50
2018-10-12T07:14:41.577Z,19.50
2018-10-12T07:17:08.956Z,16.33
2018-10-12T07:19:36.250Z,22.60
2018-10-12T07:22:03.769Z,17.17
2018-10-12T07:24:31.057Z,29.57
2018-10-12T07:26:58.318Z,23.97
2018-10-12T07:29:25.729Z,19.90
2018-10-12T07:31:52.985Z,18.67
2018-10-12T07:34:20.656Z,21.03
2018-10-12T07:36:48.040Z,18.03
2018-10-12T07:39:16.388Z,22.00
2018-10-12T07:41:43.774Z,20.23
2018-10-12T07:44:11.026Z,18.87
2018-10-12T07:46:38.251Z,14.53
2018-10-12T07:49:05.640Z,14.43
2018-10-12T07:51:33.076Z,20.00
2018-10-12T07:54:00.298Z,17.10
2018-10-12T07:56:27.565Z,19.20
2018-10-12T07:58:54.814Z,14.73
2018-10-12T08:01:22.106Z,15.70
2018-10-12T08:03:49.412Z,17.63
2018-10-12T08:06:16.888Z,14.53
2018-10-12T08:08:44.051Z,18.83
2018-10-12T08:11:11.281Z,15.20
2018-10-12T08:13:38.615Z,13.27
2018-10-12T08:16:05.812Z,16.10
2018-10-12T08:18:33.162Z,13.50
2018-10-12T08:21:00.449Z,12.03
2018-10-12T08:23:27.742Z,12.20
2018-10-12T08:25:55.017Z,14.03
2018-10-12T08:28:22.255Z,14.43
2018-10-12T08:30:49.499Z,11.03
2018-10-12T08:33:16.894Z,11.23
2018-10-12T08:35:44.225Z,11.30
2018-10-12T08:38:11.562Z,12.77
2018-10-12T08:40:38.833Z,13.97
2018-10-12T08:43:06.077Z,11.27
2018-10-12T08:45:33.455Z,9.17
2018-10-12T08:48:00.802Z,11.03
2018-10-12T08:50:28.066Z,9.70
2018-10-12T08:52:55.350Z,12.13
2018-10-12T08:55:22.915Z,12.40
2018-10-12T08:57:50.109Z,12.60
2018-10-12T09:00:17.362Z,13.63
2018-10-12T09:02:45.249Z,12.13
2018-10-12T09:05:12.603Z,10.07
2018-10-12T09:07:39.946Z,9.73
2018-10-12T09:10:07.529Z,9.93
2018-10-12T09:12:35.470Z,10.93
2018-10-12T09:15:02.747Z,10.83
2018-10-12T09:17:30.106Z,9.30
2018-10-12T09:19:57.950Z,12.70
2018-10-12T09:22:25.209Z,8.63
2018-10-12T09:24:52.471Z,9.13
2018-10-12T09:27:19.751Z,8.77
2018-10-12T09:29:47.331Z,9.97
2018-10-12T09:32:14.703Z,11.83
2018-10-12T09:34:42.121Z,12.70
2018-10-12T09:37:09.449Z,11.10
2018-10-12T09:39:36.813Z,20.60
2018-10-12T09:42:04.054Z,10.47
2018-10-12T09:44:31.421Z,9.67
2018-10-12T09:46:58.661Z,9.70
2018-10-12T09:49:25.889Z,8.63
2018-10-12T09:51:53.277Z,10.83
2018-10-12T09:54:20.455Z,8.50
2018-10-12T09:56:53.421Z,7.97
2018-10-12T09:59:20.617Z,7.30
2018-10-12T10:02:55.315Z,9.30
2018-10-12T10:05:22.622Z,8.40
2018-10-12T10:07:50.036Z,13.40
2018-10-12T10:10:17.169Z,9.73
2018-10-12T10:12:44.506Z,10.17
2018-10-12T10:15:11.802Z,7.50
2018-10-12T10:17:39.082Z,12.33
2018-10-12T10:20:06.453Z,8.00
2018-10-12T10:22:33.810Z,7.13
2018-10-12T10:25:01.303Z,6.47
2018-10-12T10:27:28.513Z,8.13
2018-10-12T10:29:55.833Z,6.67
2018-10-12T10:32:23.147Z,5.80
2018-10-12T10:34:50.378Z,7.60
2018-10-12T10:37:17.630Z,6.57
2018-10-12T10:39:45.225Z,7.73
2018-10-12T10:42:12.665Z,5.80
2018-10-12T10:44:39.890Z,6.30
2018-10-12T10:47:07.206Z,5.90
2018-10-12T10:49:34.488Z,5.63
2018-10-12T10:52:01.834Z,5.60
2018-10-12T10:54:29.430Z,6.60
2018-10-12T10:57:03.469Z,6.00
2018-10-12T10:59:31.525Z,5.13
2018-10-12T11:01:58.747Z,5.97
2018-10-12T11:04:26.242Z,5.30
2018-10-12T11:06:53.502Z,5.30
2018-10-12T11:09:20.949Z,4.23
2018-10-12T11:11:48.133Z,5.47
2018-10-12T11:14:15.433Z,5.03
2018-10-12T11:16:42.781Z,4.10
2018-10-12T11:19:10.190Z,5.23
2018-10-12T11:21:37.487Z,5.77
2018-10-12T11:24:04.814Z,4.97
2018-10-12T11:26:32.206Z,5.30
2018-10-12T11:28:59.481Z,4.30
2018-10-12T11:31:26.725Z,5.50
2018-10-12T11:33:53.922Z,5.57
2018-10-12T11:36:22.161Z,5.47
2018-10-12T11:38:49.481Z,5.83
2018-10-12T11:41:16.795Z,8.07
2018-10-12T11:43:44.098Z,9.80
2018-10-12T11:46:11.388Z,4.40
2018-10-12T11:48:38.805Z,6.70
2018-10-12T11:51:06.049Z,5.33
2018-10-12T11:53:33.299Z,4.83
2018-10-12T11:56:00.599Z,8.63
2018-10-12T11:58:28.064Z,8.90
2018-10-12T12:00:55.450Z,5.73
2018-10-12T12:10:28.416Z,4.43
2018-10-12T12:12:55.644Z,6.23
2018-10-12T12:15:23.044Z,7.57
2018-10-12T12:17:50.325Z,4.23
2018-10-12T12:20:17.621Z,5.10
2018-10-12T12:22:44.903Z,7.33
2018-10-12T12:25:12.499Z,5.63
2018-10-12T12:27:39.794Z,4.63
2018-10-12T12:30:07.082Z,7.40
2018-10-12T12:32:34.481Z,3.70
2018-10-12T12:35:01.992Z,5.20
2018-10-12T12:37:29.244Z,3.20
2018-10-12T12:39:56.457Z,6.73
2018-10-12T12:42:23.809Z,4.83
2018-10-12T12:44:51.106Z,3.60
2018-10-12T12:47:18.431Z,3.63
2018-10-12T12:49:45.769Z,2.63
2018-10-12T12:52:13.021Z,7.17
2018-10-12T12:54:40.356Z,2.47
2018-10-12T12:57:07.796Z,3.80
2018-10-12T12:59:35.106Z,2.50
2018-10-12T13:02:02.347Z,2.70
2018-10-12T13:04:29.688Z,2.40
2018-10-12T13:06:56.962Z,2.40
2018-10-12T13:09:24.249Z,2.33
2018-10-12T13:11:51.540Z,4.10
2018-10-12T13:14:18.987Z,3.33
2018-10-12T13:16:46.367Z,3.00
2018-10-12T13:19:13.683Z,2.33
2018-10-12T13:21:41.041Z,2.63
2018-10-12T13:24:08.236Z,2.00
2018-10-12T13:26:35.529Z,9.43
2018-10-12T13:29:03.158Z,4.23
2018-10-12T13:31:30.413Z,3.23
2018-10-12T13:33:57.662Z,3.13
2018-10-12T13:36:24.957Z,2.33
2018-10-12T13:38:52.287Z,3.47
2018-10-12T13:41:19.553Z,4.93
2018-10-12T13:43:46.869Z,2.63
2018-10-12T13:46:14.116Z,5.13
2018-10-12T13:48:41.433Z,3.33
2018-10-12T13:51:08.741Z,2.10
2018-10-12T13:53:35.981Z,2.20
2018-10-12T13:56:03.354Z,3.50
2018-10-12T13:58:30.577Z,3.00
2018-10-12T14:01:03.069Z,2.50
2018-10-12T14:03:35.094Z,2.67
2018-10-12T14:06:08.250Z,1.97
2018-10-12T14:08:36.106Z,2.97
2018-10-12T14:11:06.348Z,2.20
2018-10-12T14:13:33.821Z,2.57
2018-10-12T14:16:01.035Z,2.67
2018-10-12T14:18:28.553Z,3.80
2018-10-12T14:20:55.905Z,5.40
2018-10-12T14:23:23.085Z,2.97
2018-10-12T14:25:50.350Z,3.30
2018-10-12T14:28:17.612Z,3.20
2018-10-12T14:30:45.042Z,5.80
2018-10-12T14:33:12.246Z,9.83
2018-10-12T14:35:39.919Z,6.07
2018-10-12T14:38:07.240Z,3.20
2018-10-12T14:40:34.458Z,4.20
2018-10-12T14:43:01.776Z,4.77
2018-10-12T14:45:35.680Z,2.90
2018-10-12T14:48:09.664Z,2.77
2018-10-12T14:50:37.262Z,4.00
2018-10-12T14:53:04.631Z,5.43
2018-10-12T14:55:32.179Z,2.60
2018-10-12T14:57:59.513Z,5.00
2018-10-12T15:00:26.755Z,6.10
2018-10-12T15:02:53.945Z,4.07
2018-10-12T15:05:21.247Z,6.60
2018-10-12T15:07:48.429Z,5.00
2018-10-12T15:10:15.647Z,5.27
2018-10-12T15:12:42.863Z,7.53
2018-10-12T15:15:18.181Z,3.83
2018-10-12T15:17:46.093Z,5.43
2018-10-12T15:20:13.353Z,4.27
2018-10-12T15:22:44.903Z,4.60
2018-10-12T15:25:15.359Z,4.67
2018-10-12T15:27:43.125Z,5.67
2018-10-12T15:30:11.168Z,4.30
2018-10-12T15:32:38.415Z,8.00
2018-10-12T15:35:06.565Z,21.63
2018-10-12T15:37:34.231Z,12.30
2018-10-12T15:40:01.743Z,31.57
2018-10-12T15:42:29.146Z,18.63
2018-10-12T15:44:56.438Z,19.20
2018-10-12T15:47:23.988Z,15.30
2018-10-12T15:49:51.347Z,7.40
2018-10-12T15:52:18.619Z,11.50
2018-10-12T15:54:46.055Z,5.30
2018-10-12T15:57:17.244Z,7.03
2018-10-12T15:59:44.964Z,4.40
2018-10-12T16:02:12.216Z,4.80
2018-10-12T16:04:39.574Z,4.17
2018-10-12T16:07:06.773Z,6.23
2018-10-12T16:09:34.114Z,6.83
2018-10-12T16:12:01.326Z,4.17
2018-10-12T16:14:28.586Z,6.50
2018-10-12T16:16:55.922Z,6.83
2018-10-12T16:19:23.121Z,7.73
2018-10-12T16:21:50.333Z,6.10
2018-10-12T16:24:17.531Z,5.70
2018-10-12T16:26:44.732Z,7.63
2018-10-12T16:29:12.031Z,4.27
2018-10-12T16:31:39.242Z,9.53
2018-10-12T16:34:06.611Z,5.27
2018-10-12T16:36:33.895Z,7.33
2018-10-12T16:39:01.094Z,6.77
2018-10-12T16:41:28.553Z,6.80
2018-10-12T16:43:55.793Z,5.90
2018-10-12T16:46:23.207Z,6.80
2018-10-12T16:48:50.553Z,7.17
2018-10-12T16:51:17.782Z,8.43
2018-10-12T16:53:45.146Z,4.03
2018-10-12T16:56:12.350Z,6.23
2018-10-12T16:58:39.729Z,5.30
2018-10-12T17:01:07.221Z,11.23
2018-10-12T17:03:34.492Z,7.90
2018-10-12T17:06:01.802Z,12.73
2018-10-12T17:08:29.014Z,5.80
2018-10-12T17:10:56.312Z,7.50
2018-10-12T17:13:23.525Z,7.00
2018-10-12T17:15:50.829Z,9.20
2018-10-12T17:18:18.075Z,7.27
2018-10-12T17:20:45.265Z,5.93
2018-10-12T17:23:12.562Z,5.63
2018-10-12T17:25:39.845Z,7.23
2018-10-12T17:28:07.061Z,12.70
2018-10-12T17:30:34.491Z,7.30
2018-10-12T17:33:02.175Z,8.63
2018-10-12T17:35:29.386Z,16.30
2018-10-12T17:37:56.645Z,11.03
2018-10-12T17:40:23.945Z,6.40
2018-10-12T17:42:51.138Z,7.13
2018-10-12T17:47:56.284Z,5.40
2018-10-12T17:50:23.742Z,6.50
2018-10-12T17:52:51.054Z,5.23
2018-10-12T17:55:18.218Z,5.93
2018-10-12T17:57:45.438Z,10.13
2018-10-12T18:00:13.103Z,6.40
2018-10-12T18:02:40.414Z,5.50
2018-10-12T18:05:08.198Z,8.60
2018-10-12T18:07:35.426Z,8.73
2018-10-12T18:10:02.834Z,6.80
2018-10-12T18:12:30.090Z,8.23
2018-10-12T18:14:57.313Z,7.43
2018-10-12T18:17:24.622Z,6.60
2018-10-12T18:19:51.941Z,4.50
2018-10-12T18:22:19.132Z,6.00
2018-10-12T18:24:46.369Z,6.00
2018-10-12T18:27:13.653Z,7.10
2018-10-12T18:29:40.860Z,13.50
2018-10-12T18:32:08.160Z,5.87
2018-10-12T18:34:35.437Z,5.50
2018-10-12T18:37:02.750Z,5.47
2018-10-12T18:39:29.863Z,5.77
2018-10-12T18:41:57.097Z,8.20
2018-10-12T18:44:24.303Z,7.13
2018-10-12T18:46:51.498Z,10.30
2018-10-12T18:49:18.715Z,5.20
2018-10-12T18:51:45.941Z,4.73
2018-10-12T18:54:13.267Z,8.33
2018-10-12T18:56:40.485Z,6.30
2018-10-12T18:59:08.214Z,6.00
2018-10-12T19:01:35.510Z,7.13
2018-10-12T19:04:02.705Z,5.00
2018-10-12T19:06:30.108Z,5.30
2018-10-12T19:08:57.531Z,4.17
2018-10-12T19:11:25.195Z,6.20
2018-10-12T19:13:52.737Z,7.63
2018-10-12T19:16:20.083Z,7.87
2018-10-12T19:18:48.581Z,6.20
2018-10-12T19:21:16.703Z,5.37
2018-10-12T19:23:43.957Z,4.60
2018-10-12T19:26:11.814Z,4.60
2018-10-12T19:28:39.012Z,4.00
2018-10-12T19:31:07.189Z,7.37
2018-10-12T19:33:35.080Z,6.70
2018-10-12T19:36:02.366Z,5.40
2018-10-12T19:38:29.997Z,5.27
2018-10-12T19:40:57.201Z,5.73
2018-10-12T19:43:24.402Z,6.57
2018-10-12T19:45:51.589Z,3.90
2018-10-12T19:48:18.785Z,7.67
2018-10-12T19:50:46.003Z,4.30
2018-10-12T19:53:13.216Z,8.70
2018-10-12T19:55:40.450Z,5.50
2018-10-12T19:58:07.754Z,5.77
2018-10-12T20:00:34.996Z,6.20
2018-10-12T20:03:02.203Z,7.00
2018-10-12T20:05:29.456Z,8.43
2018-10-12T20:07:56.655Z,6.03
2018-10-12T20:10:23.871Z,7.00
2018-10-12T20:12:51.397Z,4.97
2018-10-12T20:15:18.609Z,5.47
2018-10-12T20:17:46.064Z,11.00
2018-10-12T20:20:13.248Z,5.20
2018-10-12T20:22:40.434Z,5.83
2018-10-12T20:25:07.649Z,4.50
2018-10-12T20:27:34.945Z,10.33
2018-10-12T20:30:02.180Z,4.63
2018-10-12T20:32:29.372Z,5.70
2018-10-12T20:34:56.669Z,4.77
2018-10-12T20:37:23.861Z,9.23
2018-10-12T20:39:51.105Z,6.00
2018-10-12T20:42:18.386Z,7.73
2018-10-12T20:44:45.613Z,6.10
2018-10-12T20:47:12.822Z,6.93
2018-10-12T20:49:40.109Z,6.47
2018-10-12T20:52:07.347Z,6.23
2018-10-12T20:54:34.533Z,8.93
2018-10-12T20:57:01.821Z,6.93
2018-10-12T20:59:29.083Z,9.20
2018-10-12T21:01:56.469Z,9.03
2018-10-12T21:04:23.857Z,9.67
2018-10-12T21:06:51.041Z,7.13
2018-10-12T21:09:18.220Z,10.60
2018-10-12T21:11:45.455Z,7.60
2018-10-12T21:14:12.710Z,6.67
2018-10-12T21:16:39.908Z,6.67
2018-10-12T21:19:07.193Z,8.10
2018-10-12T21:21:34.445Z,10.23
2018-10-12T21:24:01.661Z,9.27
2018-10-12T21:26:28.909Z,8.07
2018-10-12T21:28:56.105Z,8.83
2018-10-12T21:31:23.295Z,11.70
2018-10-12T21:33:50.523Z,10.50
2018-10-12T21:36:17.721Z,6.10
2018-10-12T21:38:44.970Z,9.30
2018-10-12T21:41:12.196Z,8.57
2018-10-12T21:43:39.394Z,9.17
2018-10-12T21:46:06.654Z,7.73
2018-10-12T21:48:34.025Z,9.17
2018-10-12T21:51:01.198Z,7.80
2018-10-12T21:53:28.430Z,8.10
2018-10-12T21:55:55.865Z,8.60
2018-10-12T21:58:23.102Z,28.83
2018-10-12T22:00:56.126Z,8.53
2018-10-12T22:03:23.416Z,8.93
2018-10-12T22:05:50.630Z,9.57
2018-10-12T22:08:23.688Z,10.03
2018-10-12T22:10:50.942Z,7.90
2018-10-12T22:13:18.291Z,7.63
2018-10-12T22:15:45.616Z,8.00
2018-10-12T22:18:12.969Z,10.20
2018-10-12T22:20:40.213Z,19.10
2018-10-12T22:23:07.445Z,14.70
2018-10-12T22:25:34.894Z,9.50
2018-10-12T22:28:02.185Z,10.67
2018-10-12T22:30:29.467Z,8.50
2018-10-12T22:32:56.749Z,12.63
2018-10-12T22:35:23.976Z,23.07
2018-10-12T22:37:51.207Z,28.50
2018-10-12T22:40:18.421Z,28.80
2018-10-12T22:42:45.963Z,19.00
2018-10-12T22:45:13.169Z,32.00
2018-10-12T22:47:40.549Z,29.10
2018-10-12T22:50:07.798Z,17.40
2018-10-12T22:52:35.169Z,19.07
2018-10-12T22:55:02.549Z,18.07
2018-10-12T22:57:29.852Z,20.53
2018-10-12T22:59:57.042Z,17.20
2018-10-12T23:02:24.313Z,14.77
2018-10-12T23:04:51.646Z,13.73
2018-10-12T23:07:18.953Z,15.63
2018-10-12T23:09:46.226Z,14.20
2018-10-12T23:12:13.457Z,16.70
2018-10-12T23:14:40.833Z,16.60
2018-10-12T23:17:08.118Z,12.03
2018-10-12T23:19:35.437Z,10.37
2018-10-12T23:22:02.721Z,13.80
2018-10-12T23:24:30.078Z,8.10
2018-10-12T23:26:57.529Z,12.60
2018-10-12T23:29:24.833Z,8.50
2018-10-12T23:31:52.099Z,11.17
2018-10-12T23:34:19.400Z,10.67
2018-10-12T23:36:46.858Z,9.57
2018-10-12T23:39:14.163Z,10.10
2018-10-12T23:41:41.729Z,9.20
2018-10-12T23:44:09.302Z,9.70
2018-10-12T23:46:36.758Z,7.47
2018-10-12T23:49:04.173Z,8.50
2018-10-12T23:51:31.523Z,9.40
2018-10-12T23:53:58.892Z,8.43
2018-10-12T23:56:26.222Z,7.60
2018-10-12T23:58:53.677Z,7.40
